Time;durP1;ratioP1;P1;durP2;ratioP2;P2;SDS_P1;SDS_P2;PMS_P1;PMS_P2;Temp;Humidity;BMP_temperature;BMP_pressure;BME280_temperature;BME280_humidity;BME280_pressure;Samples;Min_cycle;Max_cycle;Signal;HPM_P1;HPM_P2
2021/08/14 00:02:25;;;;;;;11.60;10.50;;;18.50;99.90;;;;;;5113278;28;20484;-68
2021/08/14 00:04:52;;;;;;;13.60;10.80;;;18.50;99.90;;;;;;5113214;28;20445;-68
2021/08/14 00:07:19;;;;;;;11.90;9.90;;;18.40;99.90;;;;;;5113352;28;20509;-68
2021/08/14 00:09:46;;;;;;;13.30;11.40;;;18.40;99.90;;;;;;5112621;28;20468;-68
2021/08/14 00:12:13;;;;;;;12.93;11.63;;;18.40;99.90;;;;;;5113165;28;21037;-68
2021/08/14 00:14:40;;;;;;;12.13;10.90;;;18.30;99.90;;;;;;5112728;28;21221;-68
2021/08/14 00:17:08;;;;;;;12.20;10.90;;;18.40;99.90;;;;;;5113288;28;20449;-69
2021/08/14 00:19:35;;;;;;;12.77;10.20;;;18.30;99.90;;;;;;5112428;28;20548;-69
2021/08/14 00:22:02;;;;;;;13.63;11.70;;;18.30;99.90;;;;;;5113013;28;20449;-67
2021/08/14 00:24:29;;;;;;;12.07;10.90;;;18.30;99.90;;;;;;5112350;28;20889;-69
2021/08/14 00:26:56;;;;;;;11.93;10.73;;;18.30;99.90;;;;;;5113146;28;20460;-69
2021/08/14 00:29:23;;;;;;;12.30;11.10;;;18.20;99.90;;;;;;5111663;28;20483;-69
2021/08/14 00:31:50;;;;;;;12.10;10.90;;;18.10;99.90;;;;;;5112884;28;20532;-69
2021/08/14 00:34:18;;;;;;;14.10;11.00;;;18.10;99.90;;;;;;5112566;28;20500;-69
2021/08/14 00:36:46;;;;;;;11.80;10.60;;;18.10;99.90;;;;;;5113283;28;20492;-69
2021/08/14 00:39:13;;;;;;;12.90;10.77;;;18.00;99.90;;;;;;5111949;28;20448;-68
2021/08/14 00:41:39;;;;;;;12.20;10.93;;;18.00;99.90;;;;;;5110895;28;20465;-69
2021/08/14 00:44:07;;;;;;;12.43;11.13;;;17.90;99.90;;;;;;5112250;28;20477;-69
2021/08/14 00:46:34;;;;;;;13.53;12.10;;;17.80;99.90;;;;;;5111755;28;20445;-69
2021/08/14 00:49:02;;;;;;;17.77;12.40;;;17.90;99.90;;;;;;5111214;28;20480;-69
2021/08/14 00:51:30;;;;;;;15.90;12.40;;;17.90;99.90;;;;;;5112033;28;20556;-67
2021/08/14 00:53:57;;;;;;;13.70;12.40;;;17.80;99.90;;;;;;5112218;28;20524;-67
2021/08/14 00:56:26;;;;;;;14.93;12.93;;;17.80;99.90;;;;;;5111819;28;20528;-66
2021/08/14 00:58:54;;;;;;;16.50;12.93;;;17.90;99.90;;;;;;5111630;28;20471;-66
2021/08/14 01:01:22;;;;;;;15.37;12.20;;;17.90;99.90;;;;;;5110542;28;20480;-66
2021/08/14 01:03:50;;;;;;;14.57;13.27;;;17.90;99.90;;;;;;5112184;28;20450;-67
2021/08/14 01:06:17;;;;;;;14.70;11.93;;;17.90;99.90;;;;;;5111974;28;20445;-69
2021/08/14 01:08:46;;;;;;;13.53;12.23;;;17.80;99.90;;;;;;5111782;28;20477;-67
2021/08/14 01:11:14;;;;;;;13.67;12.20;;;17.80;99.90;;;;;;5111018;28;20489;-67
2021/08/14 01:13:41;;;;;;;13.47;12.07;;;17.70;99.90;;;;;;5111967;28;20443;-67
2021/08/14 01:16:09;;;;;;;13.47;12.13;;;17.60;99.90;;;;;;5111115;28;20445;-67
2021/08/14 01:18:39;;;;;;;14.80;12.03;;;17.60;99.90;;;;;;5111476;28;20943;-68
2021/08/14 01:21:06;;;;;;;13.80;12.40;;;17.60;99.90;;;;;;5111112;28;20461;-68
2021/08/14 01:23:33;;;;;;;12.83;11.70;;;17.50;99.90;;;;;;5111675;28;20438;-68
2021/08/14 01:26:03;;;;;;;15.10;12.07;;;17.50;99.90;;;;;;5111018;28;20970;-68
2021/08/14 01:28:32;;;;;;;14.90;13.40;;;17.40;99.90;;;;;;5111531;28;20488;-68
2021/08/14 01:31:01;;;;;;;13.23;11.40;;;17.40;99.90;;;;;;5110287;28;20464;-68
2021/08/14 01:33:30;;;;;;;15.10;13.60;;;17.40;99.90;;;;;;5111669;28;20536;-67
2021/08/14 01:35:57;;;;;;;15.20;13.60;;;17.30;99.90;;;;;;5110925;28;20444;-68
2021/08/14 01:38:25;;;;;;;16.20;14.30;;;17.30;99.90;;;;;;5111355;28;20441;-67
2021/08/14 01:40:52;;;;;;;12.83;11.50;;;17.30;99.90;;;;;;5110237;28;20499;-68
2021/08/14 01:43:20;;;;;;;14.03;12.53;;;17.40;99.90;;;;;;5111000;28;21176;-67
2021/08/14 01:45:48;;;;;;;14.47;13.00;;;17.40;99.90;;;;;;5110763;28;21161;-68
2021/08/14 01:48:15;;;;;;;12.03;10.93;;;17.30;99.90;;;;;;5111191;28;20480;-68
2021/08/14 01:50:42;;;;;;;19.20;14.07;;;17.30;99.90;;;;;;5110148;28;20461;-67
2021/08/14 01:53:09;;;;;;;14.53;13.13;;;17.30;99.90;;;;;;5110800;28;20541;-67
2021/08/14 01:55:36;;;;;;;15.13;13.30;;;17.30;99.90;;;;;;5110420;28;20528;-68
2021/08/14 01:58:04;;;;;;;16.40;13.30;;;17.20;99.90;;;;;;5110821;28;20437;-68
2021/08/14 02:00:31;;;;;;;14.87;12.10;;;17.20;99.90;;;;;;5109853;28;20994;-67
2021/08/14 02:03:00;;;;;;;14.47;12.97;;;17.20;99.90;;;;;;5110748;28;20449;-68
2021/08/14 02:05:26;;;;;;;15.43;13.47;;;17.20;99.90;;;;;;5110678;28;20899;-68
2021/08/14 02:07:53;;;;;;;14.37;12.97;;;17.20;99.90;;;;;;5110538;28;20540;-67
2021/08/14 02:10:20;;;;;;;14.50;13.07;;;17.10;99.90;;;;;;5109653;28;20465;-68
2021/08/14 02:12:47;;;;;;;17.30;13.77;;;17.00;99.90;;;;;;5110546;28;20445;-67
2021/08/14 02:15:14;;;;;;;15.90;13.77;;;17.00;99.90;;;;;;5110046;28;20481;-68
2021/08/14 02:17:40;;;;;;;16.73;15.03;;;16.90;99.90;;;;;;5110400;28;20455;-68
2021/08/14 02:20:10;;;;;;;15.87;14.37;;;16.90;99.90;;;;;;5109505;28;20468;-68
2021/08/14 02:22:36;;;;;;;15.03;13.53;;;16.80;99.90;;;;;;5110750;28;20459;-68
2021/08/14 02:25:04;;;;;;;14.40;12.90;;;16.80;99.90;;;;;;5109949;28;20583;-68
2021/08/14 02:27:30;;;;;;;14.37;12.67;;;16.70;99.90;;;;;;5110122;28;20452;-67
2021/08/14 02:29:57;;;;;;;14.77;13.20;;;16.80;99.90;;;;;;5109163;28;20491;-67
2021/08/14 02:32:24;;;;;;;16.30;14.53;;;16.70;99.90;;;;;;5110378;28;20536;-68
2021/08/14 02:34:51;;;;;;;15.77;13.73;;;16.70;99.90;;;;;;5109624;28;20467;-67
2021/08/14 02:37:19;;;;;;;14.60;13.13;;;16.70;99.90;;;;;;5110068;28;20445;-68
2021/08/14 02:39:46;;;;;;;15.27;13.77;;;16.70;99.90;;;;;;5109102;28;20508;-68
2021/08/14 02:42:13;;;;;;;18.20;14.80;;;16.70;99.90;;;;;;5110138;28;20445;-68
2021/08/14 02:44:39;;;;;;;15.23;13.63;;;16.70;99.90;;;;;;5109719;28;20801;-68
2021/08/14 02:47:06;;;;;;;14.27;12.77;;;16.70;99.90;;;;;;5110001;28;20964;-68
2021/08/14 02:49:33;;;;;;;15.43;13.83;;;16.70;99.90;;;;;;5109074;28;20481;-68
2021/08/14 02:52:00;;;;;;;15.27;13.83;;;16.70;99.90;;;;;;5109906;28;20455;-67
2021/08/14 02:54:28;;;;;;;15.93;14.43;;;16.70;99.90;;;;;;5109716;28;20528;-68
2021/08/14 02:56:55;;;;;;;17.07;15.30;;;16.60;99.90;;;;;;5110356;28;20477;-67
2021/08/14 02:59:22;;;;;;;14.30;12.90;;;16.60;99.90;;;;;;5108919;28;20445;-68
2021/08/14 03:01:49;;;;;;;17.00;14.47;;;16.70;99.90;;;;;;5109851;28;20539;-68
2021/08/14 03:04:16;;;;;;;14.53;12.93;;;16.60;99.90;;;;;;5109821;28;20899;-67
2021/08/14 03:06:42;;;;;;;16.57;14.63;;;16.60;99.90;;;;;;5109692;28;20449;-67
2021/08/14 03:09:09;;;;;;;14.30;12.87;;;16.50;99.90;;;;;;5109068;28;21022;-67
2021/08/14 03:11:38;;;;;;;16.57;14.97;;;16.50;99.90;;;;;;5109619;28;20508;-67
2021/08/14 03:14:05;;;;;;;15.07;13.67;;;16.60;99.90;;;;;;5110269;28;20498;-67
2021/08/14 03:16:32;;;;;;;16.53;14.93;;;16.60;99.90;;;;;;5109830;28;20441;-68
2021/08/14 03:18:58;;;;;;;15.80;14.30;;;16.60;99.90;;;;;;5108933;28;20451;-68
2021/08/14 03:21:25;;;;;;;16.23;14.63;;;16.50;99.90;;;;;;5109636;28;20625;-67
2021/08/14 03:23:52;;;;;;;17.17;15.43;;;16.60;99.90;;;;;;5112277;28;20451;-68
2021/08/14 03:26:19;;;;;;;15.60;14.10;;;16.50;99.90;;;;;;5113511;28;20939;-67
2021/08/14 03:28:47;;;;;;;16.30;14.57;;;16.30;99.90;;;;;;5113929;28;20516;-67
2021/08/14 03:31:14;;;;;;;15.17;13.63;;;16.20;99.90;;;;;;5113139;28;20471;-68
2021/08/14 03:33:41;;;;;;;16.80;13.90;;;16.30;99.90;;;;;;5113647;28;21422;-68
2021/08/14 03:36:08;;;;;;;16.13;14.50;;;16.40;99.90;;;;;;5113735;28;20540;-67
2021/08/14 03:38:36;;;;;;;16.20;14.07;;;16.30;99.90;;;;;;5113717;28;20599;-68
2021/08/14 03:41:05;;;;;;;16.17;14.53;;;16.20;99.90;;;;;;5112590;28;20520;-68
2021/08/14 03:43:31;;;;;;;18.13;16.43;;;16.20;99.90;;;;;;5113438;28;20453;-68
2021/08/14 03:46:00;;;;;;;17.90;16.10;;;16.20;99.90;;;;;;5112995;27;20449;-68
2021/08/14 03:48:26;;;;;;;17.83;15.07;;;16.20;99.90;;;;;;5113064;28;20537;-67
2021/08/14 03:50:53;;;;;;;18.00;15.63;;;16.20;99.90;;;;;;5112289;28;20473;-70
2021/08/14 03:53:20;;;;;;;18.20;16.27;;;16.20;99.90;;;;;;5113651;28;20460;-68
2021/08/14 03:55:47;;;;;;;18.27;16.40;;;16.10;99.90;;;;;;5112846;28;20807;-68
2021/08/14 03:58:14;;;;;;;17.07;15.30;;;16.10;99.90;;;;;;5113109;28;20532;-68
2021/08/14 04:00:41;;;;;;;16.17;14.50;;;16.10;99.90;;;;;;5112515;28;20453;-68
2021/08/14 04:03:09;;;;;;;17.43;15.63;;;16.10;99.90;;;;;;5112918;28;20441;-68
2021/08/14 04:05:36;;;;;;;18.07;16.27;;;16.10;99.90;;;;;;5112883;28;20445;-68
2021/08/14 04:08:02;;;;;;;18.40;16.50;;;16.20;99.90;;;;;;5112912;28;20448;-68
2021/08/14 04:10:29;;;;;;;18.30;16.47;;;16.20;99.90;;;;;;5111976;28;20488;-67
2021/08/14 04:12:56;;;;;;;18.27;16.37;;;16.20;99.90;;;;;;5113299;28;20500;-68
2021/08/14 04:15:23;;;;;;;17.70;16.07;;;16.20;99.90;;;;;;5112309;28;20445;-68
2021/08/14 04:17:50;;;;;;;17.93;16.07;;;16.20;99.90;;;;;;5113058;28;20638;-68
2021/08/14 04:20:18;;;;;;;16.20;14.50;;;16.20;99.90;;;;;;5111662;28;20495;-67
2021/08/14 04:22:45;;;;;;;17.30;15.50;;;16.20;99.90;;;;;;5112558;28;20494;-67
2021/08/14 04:25:12;;;;;;;16.73;15.17;;;16.20;99.90;;;;;;5112520;28;20517;-67
2021/08/14 04:27:39;;;;;;;17.93;16.13;;;16.20;99.90;;;;;;5112759;28;20449;-68
2021/08/14 04:30:07;;;;;;;17.03;15.30;;;16.20;99.90;;;;;;5111536;28;20523;-68
2021/08/14 04:32:34;;;;;;;16.43;14.63;;;16.30;99.90;;;;;;5112603;28;20449;-67
2021/08/14 04:35:04;;;;;;;18.17;15.43;;;16.30;99.90;;;;;;5111150;28;20448;-68
2021/08/14 04:37:32;;;;;;;15.03;13.43;;;16.30;99.90;;;;;;5112704;28;20456;-67
2021/08/14 04:39:59;;;;;;;16.60;15.00;;;16.20;99.90;;;;;;5111861;28;20465;-68
2021/08/14 04:42:27;;;;;;;19.07;17.07;;;16.20;99.90;;;;;;5112248;28;20540;-67
2021/08/14 04:44:53;;;;;;;16.13;14.40;;;16.20;99.90;;;;;;5111993;28;21002;-68
2021/08/14 04:47:20;;;;;;;17.40;15.60;;;16.30;99.90;;;;;;5112495;28;20450;-68
2021/08/14 04:49:47;;;;;;;20.50;16.03;;;16.30;99.90;;;;;;5111630;28;20636;-67
2021/08/14 04:52:14;;;;;;;17.50;15.77;;;16.30;99.90;;;;;;5112324;28;20437;-67
2021/08/14 04:54:42;;;;;;;17.50;15.83;;;16.30;99.90;;;;;;5111942;28;20533;-68
2021/08/14 04:57:09;;;;;;;17.53;15.60;;;16.40;99.90;;;;;;5112073;28;20437;-67
2021/08/14 04:59:36;;;;;;;18.73;15.63;;;16.50;99.90;;;;;;5111314;28;20444;-67
2021/08/14 05:02:03;;;;;;;17.47;15.60;;;16.50;99.90;;;;;;5112233;28;20528;-67
2021/08/14 05:04:30;;;;;;;16.37;14.67;;;16.50;99.90;;;;;;5112132;28;20454;-67
2021/08/14 05:06:57;;;;;;;17.87;16.00;;;16.50;99.90;;;;;;5112127;28;20536;-66
2021/08/14 05:09:24;;;;;;;17.27;15.50;;;16.50;99.90;;;;;;5110798;28;20483;-67
2021/08/14 05:11:52;;;;;;;16.73;15.03;;;16.50;99.90;;;;;;5112314;28;20557;-68
2021/08/14 05:14:19;;;;;;;16.43;14.90;;;16.60;99.90;;;;;;5111672;28;20471;-67
2021/08/14 05:16:46;;;;;;;17.87;15.93;;;16.70;99.90;;;;;;5111855;28;20532;-67
2021/08/14 05:19:13;;;;;;;17.40;15.50;;;16.70;99.90;;;;;;5111099;28;20461;-67
2021/08/14 05:21:40;;;;;;;18.93;16.93;;;16.80;99.90;;;;;;5111676;28;20465;-67
2021/08/14 05:24:07;;;;;;;18.30;16.30;;;16.90;99.90;;;;;;5111655;28;20445;-67
2021/08/14 05:26:34;;;;;;;18.23;16.30;;;16.80;99.90;;;;;;5111567;28;20541;-67
2021/08/14 05:29:02;;;;;;;17.10;15.40;;;16.90;99.90;;;;;;5110937;28;20975;-67
2021/08/14 05:31:29;;;;;;;17.73;15.97;;;17.00;99.90;;;;;;5111607;28;20461;-67
2021/08/14 05:34:02;;;;;;;19.30;15.97;;;17.00;99.90;;;;;;5111699;28;20554;-67
2021/08/14 05:36:28;;;;;;;18.37;16.57;;;17.10;99.90;;;;;;5110946;28;20467;-67
2021/08/14 05:38:55;;;;;;;15.27;13.73;;;17.20;99.90;;;;;;5111126;28;20995;-67
2021/08/14 05:41:22;;;;;;;16.90;15.07;;;17.30;99.90;;;;;;5111391;28;20572;-68
2021/08/14 05:43:49;;;;;;;15.20;13.70;;;17.30;99.90;;;;;;5111623;28;20833;-67
2021/08/14 05:46:17;;;;;;;16.80;15.10;;;17.40;99.90;;;;;;5110492;28;20459;-67
2021/08/14 05:48:44;;;;;;;16.87;15.00;;;17.50;99.90;;;;;;5111149;28;20463;-67
2021/08/14 05:51:12;;;;;;;16.87;15.30;;;17.60;99.90;;;;;;5110290;28;20485;-67
2021/08/14 05:53:39;;;;;;;16.40;14.80;;;17.60;99.90;;;;;;5111017;28;20943;-67
2021/08/14 05:56:06;;;;;;;18.43;15.30;;;17.70;99.90;;;;;;5111019;28;20544;-67
2021/08/14 05:58:33;;;;;;;19.00;16.17;;;17.70;99.90;;;;;;5111234;28;20449;-67
2021/08/14 06:01:00;;;;;;;15.67;14.03;;;17.80;99.90;;;;;;5110104;28;20461;-66
2021/08/14 06:03:34;;;;;;;15.93;14.33;;;17.90;99.90;;;;;;5111152;28;20441;-68
2021/08/14 06:06:01;;;;;;;14.60;13.10;;;18.00;99.90;;;;;;5110884;28;20896;-67
2021/08/14 06:08:28;;;;;;;17.80;15.87;;;18.10;99.90;;;;;;5110980;28;20532;-68
2021/08/14 06:10:55;;;;;;;15.80;14.30;;;18.20;99.90;;;;;;5109909;28;20912;-67
2021/08/14 06:13:21;;;;;;;17.57;15.67;;;18.30;99.90;;;;;;5110764;28;20536;-67
2021/08/14 06:15:49;;;;;;;15.93;13.53;;;18.40;99.90;;;;;;5110234;28;20441;-67
2021/08/14 06:18:16;;;;;;;14.63;13.23;;;18.50;99.90;;;;;;5110711;28;20441;-67
2021/08/14 06:20:44;;;;;;;14.67;13.10;;;18.60;99.90;;;;;;5109694;28;20491;-67
2021/08/14 06:23:12;;;;;;;15.70;14.00;;;18.70;99.90;;;;;;5110586;28;20500;-67
2021/08/14 06:25:39;;;;;;;15.53;14.03;;;18.90;99.90;;;;;;5110184;28;20499;-67
2021/08/14 06:28:07;;;;;;;14.07;12.67;;;19.00;99.90;;;;;;5110457;28;20484;-67
2021/08/14 06:30:34;;;;;;;14.37;12.97;;;19.10;99.90;;;;;;5109778;28;20568;-68
2021/08/14 06:33:01;;;;;;;14.13;12.73;;;19.20;99.90;;;;;;5110641;28;20449;-67
2021/08/14 06:35:28;;;;;;;14.77;13.37;;;19.30;99.90;;;;;;5110390;28;20456;-67
2021/08/14 06:37:56;;;;;;;14.47;12.93;;;19.40;99.90;;;;;;5110535;28;20531;-67
2021/08/14 06:40:23;;;;;;;15.20;13.63;;;19.50;99.90;;;;;;5109795;28;20457;-67
2021/08/14 06:42:50;;;;;;;15.17;13.67;;;19.60;99.90;;;;;;5109151;28;20480;-68
2021/08/14 06:45:17;;;;;;;14.00;12.50;;;19.80;99.90;;;;;;5110016;28;20471;-67
2021/08/14 06:47:44;;;;;;;14.53;12.53;;;19.90;99.90;;;;;;5110346;28;20978;-68
2021/08/14 06:50:11;;;;;;;14.87;13.47;;;20.10;99.90;;;;;;5109079;28;20867;-67
2021/08/14 06:52:38;;;;;;;14.77;13.20;;;20.20;99.90;;;;;;5110300;28;20528;-68
2021/08/14 06:55:07;;;;;;;18.43;13.97;;;20.20;99.90;;;;;;5109953;28;20532;-68
2021/08/14 06:57:34;;;;;;;14.13;12.77;;;20.30;99.90;;;;;;5108977;28;20529;-68
2021/08/14 07:00:03;;;;;;;13.53;11.63;;;20.40;99.90;;;;;;5109275;28;20471;-67
2021/08/14 07:02:31;;;;;;;14.77;13.37;;;20.50;99.90;;;;;;5110121;28;20445;-67
2021/08/14 07:04:57;;;;;;;13.93;12.27;;;20.70;99.90;;;;;;5109552;28;20491;-68
2021/08/14 07:07:24;;;;;;;13.40;11.40;;;20.80;99.90;;;;;;5109713;28;20441;-68
2021/08/14 07:09:52;;;;;;;14.50;11.90;;;21.00;99.90;;;;;;5108774;28;20480;-68
2021/08/14 07:12:20;;;;;;;12.80;11.50;;;21.10;99.90;;;;;;5109994;28;20460;-67
2021/08/14 07:14:47;;;;;;;12.80;11.50;;;21.20;99.90;;;;;;5109737;28;20541;-68
2021/08/14 07:17:13;;;;;;;13.43;12.00;;;21.40;99.90;;;;;;5109864;28;20468;-68
2021/08/14 07:19:40;;;;;;;12.97;11.73;;;21.50;99.90;;;;;;5108691;28;20468;-69
2021/08/14 07:22:07;;;;;;;13.20;11.73;;;21.60;99.90;;;;;;5109970;28;20445;-67
2021/08/14 07:24:34;;;;;;;12.03;10.93;;;21.70;99.90;;;;;;5109055;28;20593;-68
2021/08/14 07:27:01;;;;;;;14.37;12.87;;;21.80;99.90;;;;;;5109819;28;20477;-69
2021/08/14 07:29:29;;;;;;;13.63;11.60;;;21.90;99.90;;;;;;5108863;28;20445;-68
2021/08/14 07:31:56;;;;;;;11.77;10.57;;;22.10;99.90;;;;;;5109910;28;20520;-68
2021/08/14 07:34:23;;;;;;;12.60;11.10;;;22.30;99.90;;;;;;5109387;28;20888;-69
2021/08/14 07:36:50;;;;;;;11.80;9.83;;;22.40;99.90;;;;;;5109725;28;20441;-68
2021/08/14 07:39:17;;;;;;;10.93;9.93;;;22.60;99.90;;;;;;5109183;28;20510;-68
2021/08/14 07:41:44;;;;;;;11.93;10.60;;;22.70;99.90;;;;;;5109473;28;21013;-69
2021/08/14 07:44:11;;;;;;;12.50;11.30;;;22.80;99.90;;;;;;5109720;28;20448;-69
2021/08/14 07:46:39;;;;;;;12.00;10.80;;;23.00;99.90;;;;;;5109365;28;20483;-68
2021/08/14 07:49:07;;;;;;;11.03;9.87;;;23.10;99.90;;;;;;5108685;28;20536;-69
2021/08/14 07:51:34;;;;;;;12.60;11.33;;;23.20;99.90;;;;;;5108891;28;20534;-68
2021/08/14 07:54:01;;;;;;;10.90;9.90;;;23.30;99.90;;;;;;5109458;28;20524;-68
2021/08/14 07:56:28;;;;;;;11.70;8.93;;;23.40;99.90;;;;;;5108904;28;20963;-69
2021/08/14 07:58:54;;;;;;;10.50;9.50;;;23.60;99.90;;;;;;5109108;28;20449;-68
2021/08/14 08:01:21;;;;;;;11.00;9.80;;;23.70;99.90;;;;;;5108935;28;20889;-68
2021/08/14 08:03:49;;;;;;;11.43;10.30;;;23.80;99.90;;;;;;5109294;28;20199;-68
2021/08/14 08:06:16;;;;;;;11.20;9.37;;;24.00;99.90;;;;;;5109009;28;20447;-69
2021/08/14 08:08:43;;;;;;;9.57;8.67;;;24.10;99.90;;;;;;5110133;28;20445;-69
2021/08/14 08:11:10;;;;;;;12.93;9.00;;;24.20;99.90;;;;;;5111996;28;20477;-69
2021/08/14 08:13:37;;;;;;;9.80;8.90;;;24.40;99.90;;;;;;5113193;28;20449;-69
2021/08/14 08:16:05;;;;;;;11.30;10.10;;;24.50;99.90;;;;;;5112367;28;20809;-69
2021/08/14 08:18:32;;;;;;;9.40;8.33;;;24.60;99.90;;;;;;5112729;28;20456;-69
2021/08/14 08:21:00;;;;;;;11.10;8.57;;;24.70;99.90;;;;;;5111731;28;20849;-69
2021/08/14 08:23:27;;;;;;;9.77;8.77;;;24.80;99.90;;;;;;5112933;28;20551;-69
2021/08/14 08:25:54;;;;;;;8.90;7.90;;;24.90;99.90;;;;;;5112159;28;20827;-69
2021/08/14 08:28:21;;;;;;;9.00;8.00;;;25.10;99.90;;;;;;5112501;28;20455;-69
2021/08/14 08:30:49;;;;;;;8.10;7.40;;;25.10;99.90;;;;;;5111357;28;20983;-69
2021/08/14 08:33:16;;;;;;;9.17;8.37;;;25.30;99.90;;;;;;5112140;28;20452;-69
2021/08/14 08:35:42;;;;;;;9.10;8.20;;;25.40;99.90;;;;;;5112261;28;20440;-69
2021/08/14 08:38:11;;;;;;;8.57;7.77;;;25.50;99.90;;;;;;5112521;28;20527;-68
2021/08/14 08:40:40;;;;;;;8.97;8.07;;;25.60;99.90;;;;;;5111636;28;20476;-69
2021/08/14 08:43:07;;;;;;;8.67;7.77;;;25.80;99.90;;;;;;5112389;28;20479;-66
2021/08/14 08:45:34;;;;;;;11.33;8.67;;;25.90;99.90;;;;;;5111962;28;20454;-66
2021/08/14 08:48:04;;;;;;;8.97;7.80;;;26.00;99.90;;;;;;5112358;28;20455;-66
2021/08/14 08:50:32;;;;;;;9.00;8.10;;;26.00;99.90;;;;;;5111689;28;20511;-66
2021/08/14 08:53:01;;;;;;;8.23;7.53;;;26.10;99.90;;;;;;5112424;28;20443;-66
2021/08/14 08:55:30;;;;;;;8.77;7.80;;;26.30;99.90;;;;;;5111897;28;20456;-66
2021/08/14 08:57:59;;;;;;;9.00;8.10;;;26.50;99.90;;;;;;5112008;28;21065;-66
2021/08/14 09:00:26;;;;;;;8.73;7.93;;;26.50;99.90;;;;;;5110845;28;20461;-66
2021/08/14 09:03:10;;;;;;;11.07;8.80;;;26.60;99.90;;;;;;5111901;28;20445;-66
2021/08/14 09:05:50;;;;;;;7.73;7.03;;;26.80;99.90;;;;;;5111521;28;20481;-69
2021/08/14 09:08:17;;;;;;;9.10;8.20;;;27.00;99.90;;;;;;5111817;28;20444;-69
2021/08/14 09:10:46;;;;;;;7.63;6.83;;;27.00;99.90;;;;;;5110697;28;20488;-69
2021/08/14 09:13:15;;;;;;;8.43;6.80;;;27.20;99.90;;;;;;5112119;28;20918;-68
2021/08/14 09:15:42;;;;;;;8.67;7.77;;;27.40;99.90;;;;;;5111740;28;20452;-69
2021/08/14 09:18:10;;;;;;;8.13;7.23;;;27.40;99.90;;;;;;5112044;28;20469;-68
2021/08/14 09:20:50;;;;;;;8.67;7.90;;;27.40;99.90;;;;;;5110066;28;20609;-68
2021/08/14 09:23:16;;;;;;;8.50;7.60;;;27.60;99.90;;;;;;5111579;28;20544;-69
2021/08/14 09:25:46;;;;;;;9.13;7.60;;;27.80;99.90;;;;;;5111759;28;20445;-68
2021/08/14 09:28:15;;;;;;;7.23;6.53;;;28.10;99.90;;;;;;5111610;28;20449;-68
2021/08/14 09:30:50;;;;;;;8.63;6.80;;;28.20;99.90;;;;;;5110577;28;21009;-68
2021/08/14 09:33:19;;;;;;;8.70;7.90;;;28.30;99.90;;;;;;5111955;28;20472;-68
2021/08/14 09:35:47;;;;;;;8.17;7.37;;;28.50;99.90;;;;;;5111320;27;20455;-68
2021/08/14 09:38:15;;;;;;;8.67;7.47;;;28.70;99.90;;;;;;5111768;28;20969;-69
2021/08/14 09:40:44;;;;;;;8.23;7.43;;;28.80;99.90;;;;;;5111051;28;20556;-69
2021/08/14 09:43:14;;;;;;;8.73;7.47;;;29.10;99.90;;;;;;5112020;28;20821;-69
2021/08/14 09:45:54;;;;;;;8.40;6.27;;;29.40;99.90;;;;;;5111499;28;20532;-69
2021/08/14 09:48:22;;;;;;;7.90;7.10;;;29.80;99.90;;;;;;5111954;28;20426;-69
2021/08/14 09:50:49;;;;;;;8.73;7.20;;;30.30;99.90;;;;;;5110554;28;20489;-69
2021/08/14 09:53:19;;;;;;;8.33;7.53;;;30.80;99.80;;;;;;5111657;28;20445;-68
2021/08/14 09:55:47;;;;;;;8.33;7.53;;;31.20;97.80;;;;;;5110941;28;20477;-69
2021/08/14 09:58:21;;;;;;;7.13;5.77;;;31.50;96.70;;;;;;5111598;28;20441;-69
2021/08/14 10:00:50;;;;;;;8.03;6.63;;;32.00;97.30;;;;;;5109997;28;20462;-68
2021/08/14 10:03:17;;;;;;;8.20;7.40;;;32.30;96.30;;;;;;5111250;28;20451;-69
2021/08/14 10:05:45;;;;;;;8.60;7.47;;;32.40;96.20;;;;;;5110629;28;20441;-69
2021/08/14 10:08:13;;;;;;;7.30;6.60;;;32.60;96.60;;;;;;5111102;28;20456;-69
2021/08/14 10:10:40;;;;;;;8.17;6.83;;;33.00;96.60;;;;;;5109478;28;20517;-67
2021/08/14 10:13:08;;;;;;;7.60;7.00;;;32.70;93.70;;;;;;5110464;28;20533;-68
2021/08/14 10:15:37;;;;;;;10.87;7.43;;;32.20;94.10;;;;;;5110303;28;20532;-69
2021/08/14 10:18:05;;;;;;;9.40;8.23;;;32.10;94.00;;;;;;5110445;28;21009;-69
2021/08/14 10:20:32;;;;;;;8.63;7.80;;;32.00;94.30;;;;;;5109856;28;20564;-69
2021/08/14 10:23:02;;;;;;;8.03;7.23;;;32.10;94.30;;;;;;5110488;28;20449;-69
2021/08/14 10:25:31;;;;;;;8.97;8.07;;;32.10;94.60;;;;;;5110392;28;20540;-69
2021/08/14 10:27:59;;;;;;;8.73;7.90;;;31.90;94.70;;;;;;5110358;28;20476;-69
2021/08/14 10:30:38;;;;;;;8.80;8.00;;;32.10;94.90;;;;;;5109667;28;21417;-69
2021/08/14 10:33:05;;;;;;;8.60;7.80;;;31.90;93.60;;;;;;5110865;28;20855;-69
2021/08/14 10:35:37;;;;;;;9.77;8.80;;;31.90;93.70;;;;;;5110042;28;20444;-69
2021/08/14 10:38:26;;;;;;;9.30;8.20;;;31.70;93.30;;;;;;5110481;28;20525;-69
2021/08/14 10:41:01;;;;;;;8.77;7.93;;;31.50;94.60;;;;;;5109233;28;20458;-69
2021/08/14 10:43:59;;;;;;;9.87;8.87;;;31.70;95.60;;;;;;5110362;28;20480;-69
2021/08/14 10:46:49;;;;;;;8.63;7.73;;;32.30;97.40;;;;;;5026568;28;20476;-68
2021/08/14 10:49:22;;;;;;;8.53;7.73;;;32.60;93.50;;;;;;5103321;28;20505;-68
2021/08/14 10:52:14;;;;;;;8.50;7.80;;;32.90;92.50;;;;;;5110478;28;20465;-68
2021/08/14 10:55:10;;;;;;;9.07;8.20;;;33.00;92.60;;;;;;5109550;28;20444;-68
2021/08/14 10:57:51;;;;;;;8.83;8.00;;;32.70;92.00;;;;;;5110408;28;20442;-69
2021/08/14 11:00:26;;;;;;;11.90;9.00;;;32.80;91.90;;;;;;5109339;28;20462;-68
2021/08/14 11:03:07;;;;;;;8.90;7.13;;;32.80;91.60;;;;;;5109933;28;20875;-69
2021/08/14 11:05:35;;;;;;;9.90;8.47;;;33.00;92.20;;;;;;5109512;28;20517;-69
2021/08/14 11:08:02;;;;;;;9.93;8.27;;;33.00;92.20;;;;;;5110156;28;20799;-69
2021/08/14 11:10:38;;;;;;;8.67;7.67;;;33.50;92.60;;;;;;5109280;28;20457;-68
2021/08/14 11:13:42;;;;;;;8.73;7.87;;;34.00;90.80;;;;;;5110028;28;20524;-69
2021/08/14 11:16:09;;;;;;;8.17;7.37;;;34.40;91.20;;;;;;5109374;28;20429;-69
2021/08/14 11:18:56;;;;;;;8.97;8.03;;;34.60;91.60;;;;;;5109732;28;20457;-69
2021/08/14 11:21:43;;;;;;;8.80;7.90;;;34.60;89.80;;;;;;5109588;28;20465;-69
2021/08/14 11:24:10;;;;;;;7.40;6.70;;;34.60;90.20;;;;;;5109925;28;20445;-67
2021/08/14 11:26:39;;;;;;;8.43;7.63;;;35.00;88.80;;;;;;5109796;28;20449;-67
2021/08/14 11:29:07;;;;;;;7.93;6.90;;;35.20;90.30;;;;;;5108985;28;20441;-68
2021/08/14 11:31:34;;;;;;;8.47;7.67;;;35.40;90.10;;;;;;5109631;28;20491;-68
2021/08/14 11:34:11;;;;;;;8.40;7.23;;;35.20;88.50;;;;;;5110013;28;20441;-66
2021/08/14 11:36:38;;;;;;;8.90;7.50;;;35.50;90.30;;;;;;5109672;28;20437;-67
2021/08/14 11:39:05;;;;;;;9.03;8.20;;;35.70;87.30;;;;;;5108551;28;21026;-68
2021/08/14 11:41:33;;;;;;;9.57;7.90;;;36.10;86.80;;;;;;5109588;28;20532;-69
2021/08/14 11:44:04;;;;;;;8.43;7.63;;;36.10;82.50;;;;;;5110488;28;20532;-68
2021/08/14 11:46:32;;;;;;;8.90;7.30;;;36.50;82.80;;;;;;5113175;28;20909;-68
2021/08/14 11:49:02;;;;;;;7.30;6.63;;;37.00;79.70;;;;;;5112639;28;21014;-68
2021/08/14 11:51:31;;;;;;;8.50;7.07;;;37.00;79.00;;;;;;5113314;28;20477;-68
2021/08/14 11:54:09;;;;;;;8.00;7.20;;;36.80;80.80;;;;;;5113261;28;20429;-68
2021/08/14 11:56:36;;;;;;;8.63;7.53;;;35.70;82.70;;;;;;5113031;28;20917;-68
2021/08/14 11:59:04;;;;;;;8.43;7.57;;;33.80;84.50;;;;;;5112643;28;20449;-68
2021/08/14 12:01:31;;;;;;;8.30;7.60;;;32.60;89.20;;;;;;5112987;28;20581;-67
2021/08/14 12:03:58;;;;;;;12.00;8.23;;;32.40;92.70;;;;;;5113143;28;20532;-68
2021/08/14 12:06:30;;;;;;;9.33;8.43;;;32.10;90.80;;;;;;5112858;28;20851;-68
2021/08/14 12:08:59;;;;;;;10.80;8.67;;;32.00;91.40;;;;;;5112503;28;20448;-68
2021/08/14 12:11:27;;;;;;;10.00;7.90;;;31.80;92.10;;;;;;5112567;28;20476;-68
2021/08/14 12:14:15;;;;;;;8.90;7.50;;;31.50;92.60;;;;;;5113037;28;20540;-67
2021/08/14 12:16:43;;;;;;;9.57;8.13;;;31.90;92.30;;;;;;5112998;28;20536;-67
2021/08/14 12:19:14;;;;;;;9.23;7.77;;;32.70;90.80;;;;;;5111696;28;20970;-68
2021/08/14 12:21:43;;;;;;;9.60;8.20;;;33.60;88.90;;;;;;5112833;28;20468;-67
2021/08/14 12:24:10;;;;;;;7.63;6.90;;;34.40;84.40;;;;;;5112599;28;20492;-68
2021/08/14 12:26:37;;;;;;;11.00;8.10;;;34.50;83.80;;;;;;5112208;28;20445;-68
2021/08/14 12:29:06;;;;;;;8.73;7.37;;;34.40;89.20;;;;;;5112038;28;20817;-69
2021/08/14 12:31:45;;;;;;;8.47;7.40;;;34.40;86.90;;;;;;5112509;28;20596;-68
2021/08/14 12:34:23;;;;;;;8.20;7.47;;;35.40;85.40;;;;;;5112653;28;20433;-69
2021/08/14 12:37:03;;;;;;;11.70;8.60;;;36.20;81.70;;;;;;5112587;28;21094;-69
2021/08/14 12:39:48;;;;;;;8.23;7.20;;;35.30;80.80;;;;;;5111963;28;20457;-69
2021/08/14 12:42:17;;;;;;;9.73;7.57;;;35.20;85.30;;;;;;5111829;28;20470;-68